Granite Falls, NC (28630)

1:08 AM EDT on August 24, 2016 (GMT -0400)
Cedar Valley Rd | | Change Station

Elev 1227 ft 35.84 °N, 81.47 °W | Updated 6 seconds ago

Clear
Clear
67.1 °F
Feels Like 67.1 °F
N
0.0
Wind Variable Wind from SSW
Gusts 0.0 mph

Today
High -- | Low -- °F
--% Chance of Precip.
Yesterday
High -- | Low -- °F
Precip. -- in
Pressure 30.23 in
Visibility 10.0 miles
Clouds Clear
Dew Point 65 °F
Humidity 92%
Rainfall 0.00 in
Snow Depth Not available.
6:52 AM 8:03 PM
Waning Gibbous, 61% visible
METAR KHKY 240453Z AUTO 00000KT 10SM CLR 20/19 A3029 RMK AO2 SLP236 T02000194 402940189
Pressure 30.23 in
Visibility 10.0 miles
Clouds Clear
Dew Point 65 °F
Humidity 92%
Rainfall 0.00 in
Snow Depth Not available.
6:52 AM 8:03 PM
Waning Gibbous, 61% visible
METAR KHKY 240453Z AUTO 00000KT 10SM CLR 20/19 A3029 RMK AO2 SLP236 T02000194 402940189

10-Day Weather Forecast

Almanac

Astronomy

Aug. 24, 2016 Rise Set
Actual Time
Civil Twilight
Nautical Twilight
Astronomical Twilight
Moon
Length of Visible Light
Length of Day
Tomorrow will be .
, % of the Moon is Illuminated

Today's Extremes

State Highs State Lows

Community

WunderPhotos

Upload Photos

1,934,554 photos uploaded!

WunderBlog® & News

Nearby

Air Quality

  Air Quality AQ Index Pollutant
Not available.

Snow Depth

Station Depth Elevation

Earthquake Activity

City Distance Mag. Time & Date
Minimum magnitude displayed is 2.5.

Coastal Water Temperatures

Place Temperature

Stations

Nearby Weather Stations

Station Location Temp. Windchill Dew Point Humidity Wind Precip. Elev Updated Type
                   

Watches & Warnings

There are currently no watches in effect.